sensor_id;sensor_type;location;lat;lon;timestamp;P1;durP1;ratioP1;P2;durP2;ratioP2
50417;SDS011;36346;48.280;14.292;2022-12-18T00:01:59;79.61;;;77.42;;
50417;SDS011;36346;48.280;14.292;2022-12-18T00:04:28;80.47;;;78.14;;
50417;SDS011;36346;48.280;14.292;2022-12-18T00:06:57;80.91;;;78.64;;
50417;SDS011;36346;48.280;14.292;2022-12-18T00:09:25;80.18;;;77.85;;
50417;SDS011;36346;48.280;14.292;2022-12-18T00:12:07;80.64;;;78.49;;
50417;SDS011;36346;48.280;14.292;2022-12-18T00:14:43;81.04;;;78.64;;
50417;SDS011;36346;48.280;14.292;2022-12-18T00:17:11;79.95;;;77.66;;
50417;SDS011;36346;48.280;14.292;2022-12-18T00:19:39;82.35;;;79.61;;
50417;SDS011;36346;48.280;14.292;2022-12-18T00:22:07;84.51;;;81.63;;
50417;SDS011;36346;48.280;14.292;2022-12-18T00:24:35;82.92;;;80.42;;
50417;SDS011;36346;48.280;14.292;2022-12-18T00:27:02;82.20;;;79.86;;
50417;SDS011;36346;48.280;14.292;2022-12-18T00:29:31;82.43;;;79.77;;
50417;SDS011;36346;48.280;14.292;2022-12-18T00:31:59;82.95;;;80.53;;
50417;SDS011;36346;48.280;14.292;2022-12-18T00:34:27;83.04;;;81.12;;
50417;SDS011;36346;48.280;14.292;2022-12-18T00:36:55;83.27;;;80.95;;
50417;SDS011;36346;48.280;14.292;2022-12-18T00:39:22;85.28;;;83.09;;
50417;SDS011;36346;48.280;14.292;2022-12-18T00:41:50;87.00;;;84.45;;
50417;SDS011;36346;48.280;14.292;2022-12-18T00:44:37;85.24;;;83.11;;
50417;SDS011;36346;48.280;14.292;2022-12-18T00:47:05;84.72;;;82.19;;
50417;SDS011;36346;48.280;14.292;2022-12-18T00:49:33;83.56;;;81.56;;
50417;SDS011;36346;48.280;14.292;2022-12-18T00:52:01;84.56;;;82.23;;
50417;SDS011;36346;48.280;14.292;2022-12-18T00:54:29;85.01;;;82.73;;
50417;SDS011;36346;48.280;14.292;2022-12-18T00:56:57;85.61;;;83.31;;
50417;SDS011;36346;48.280;14.292;2022-12-18T00:59:25;86.93;;;84.27;;
50417;SDS011;36346;48.280;14.292;2022-12-18T01:01:53;87.65;;;84.75;;
50417;SDS011;36346;48.280;14.292;2022-12-18T01:04:21;84.40;;;82.21;;
50417;SDS011;36346;48.280;14.292;2022-12-18T01:06:49;83.83;;;81.42;;
50417;SDS011;36346;48.280;14.292;2022-12-18T01:09:17;84.13;;;81.66;;
50417;SDS011;36346;48.280;14.292;2022-12-18T01:11:45;85.52;;;83.26;;
50417;SDS011;36346;48.280;14.292;2022-12-18T01:14:13;83.86;;;81.72;;
50417;SDS011;36346;48.280;14.292;2022-12-18T01:16:41;83.30;;;81.11;;
50417;SDS011;36346;48.280;14.292;2022-12-18T01:19:09;83.00;;;80.66;;
50417;SDS011;36346;48.280;14.292;2022-12-18T01:21:37;81.19;;;79.37;;
50417;SDS011;36346;48.280;14.292;2022-12-18T01:24:05;82.38;;;80.10;;
50417;SDS011;36346;48.280;14.292;2022-12-18T01:26:33;81.99;;;79.84;;
50417;SDS011;36346;48.280;14.292;2022-12-18T01:29:01;82.12;;;80.07;;
50417;SDS011;36346;48.280;14.292;2022-12-18T01:31:30;82.77;;;80.53;;
50417;SDS011;36346;48.280;14.292;2022-12-18T01:34:03;84.22;;;81.91;;
50417;SDS011;36346;48.280;14.292;2022-12-18T01:36:33;84.07;;;81.65;;
50417;SDS011;36346;48.280;14.292;2022-12-18T01:39:06;85.66;;;83.48;;
50417;SDS011;36346;48.280;14.292;2022-12-18T01:41:37;85.85;;;83.76;;
50417;SDS011;36346;48.280;14.292;2022-12-18T01:47:47;87.57;;;84.61;;
50417;SDS011;36346;48.280;14.292;2022-12-18T01:50:23;87.03;;;84.55;;
50417;SDS011;36346;48.280;14.292;2022-12-18T01:53:14;84.96;;;82.84;;
50417;SDS011;36346;48.280;14.292;2022-12-18T01:55:48;85.56;;;83.30;;
50417;SDS011;36346;48.280;14.292;2022-12-18T01:58:23;86.49;;;84.24;;
50417;SDS011;36346;48.280;14.292;2022-12-18T02:00:57;85.97;;;83.64;;
50417;SDS011;36346;48.280;14.292;2022-12-18T02:03:26;86.52;;;84.04;;
50417;SDS011;36346;48.280;14.292;2022-12-18T02:05:59;86.72;;;84.40;;
50417;SDS011;36346;48.280;14.292;2022-12-18T02:08:36;85.64;;;83.10;;
50417;SDS011;36346;48.280;14.292;2022-12-18T02:11:39;85.03;;;82.86;;
50417;SDS011;36346;48.280;14.292;2022-12-18T02:22:26;86.48;;;83.77;;
50417;SDS011;36346;48.280;14.292;2022-12-18T02:28:26;89.86;;;86.66;;
50417;SDS011;36346;48.280;14.292;2022-12-18T02:31:07;87.02;;;84.53;;
50417;SDS011;36346;48.280;14.292;2022-12-18T02:33:41;88.80;;;85.86;;
50417;SDS011;36346;48.280;14.292;2022-12-18T02:36:13;88.71;;;85.19;;
50417;SDS011;36346;48.280;14.292;2022-12-18T02:38:44;102.17;;;96.76;;
50417;SDS011;36346;48.280;14.292;2022-12-18T02:41:16;102.89;;;97.29;;
50417;SDS011;36346;48.280;14.292;2022-12-18T02:43:48;90.63;;;86.58;;
50417;SDS011;36346;48.280;14.292;2022-12-18T02:46:23;87.06;;;83.57;;
50417;SDS011;36346;48.280;14.292;2022-12-18T02:48:57;85.65;;;82.77;;
50417;SDS011;36346;48.280;14.292;2022-12-18T02:51:55;83.67;;;79.88;;
50417;SDS011;36346;48.280;14.292;2022-12-18T03:00:14;82.94;;;79.03;;
50417;SDS011;36346;48.280;14.292;2022-12-18T03:05:52;74.70;;;71.66;;
50417;SDS011;36346;48.280;14.292;2022-12-18T03:08:29;67.83;;;64.88;;
50417;SDS011;36346;48.280;14.292;2022-12-18T03:11:03;63.48;;;60.73;;
50417;SDS011;36346;48.280;14.292;2022-12-18T03:13:43;61.46;;;58.83;;
50417;SDS011;36346;48.280;14.292;2022-12-18T03:16:17;62.22;;;59.20;;
50417;SDS011;36346;48.280;14.292;2022-12-18T03:18:54;60.88;;;58.10;;
50417;SDS011;36346;48.280;14.292;2022-12-18T03:21:28;59.59;;;56.96;;
50417;SDS011;36346;48.280;14.292;2022-12-18T03:24:05;57.55;;;55.04;;
50417;SDS011;36346;48.280;14.292;2022-12-18T03:26:37;58.13;;;55.33;;
50417;SDS011;36346;48.280;14.292;2022-12-18T03:29:17;56.90;;;53.83;;
50417;SDS011;36346;48.280;14.292;2022-12-18T03:31:53;50.82;;;49.02;;
50417;SDS011;36346;48.280;14.292;2022-12-18T03:34:31;42.31;;;40.95;;
50417;SDS011;36346;48.280;14.292;2022-12-18T03:37:06;43.26;;;41.76;;
50417;SDS011;36346;48.280;14.292;2022-12-18T03:39:36;39.86;;;38.61;;
50417;SDS011;36346;48.280;14.292;2022-12-18T03:42:23;35.92;;;35.05;;
50417;SDS011;36346;48.280;14.292;2022-12-18T03:45:12;35.98;;;35.17;;
50417;SDS011;36346;48.280;14.292;2022-12-18T03:47:57;35.59;;;34.75;;
50417;SDS011;36346;48.280;14.292;2022-12-18T03:50:46;35.41;;;34.62;;
50417;SDS011;36346;48.280;14.292;2022-12-18T03:53:29;36.38;;;35.56;;
50417;SDS011;36346;48.280;14.292;2022-12-18T03:56:01;37.04;;;35.97;;
50417;SDS011;36346;48.280;14.292;2022-12-18T03:58:36;39.86;;;38.35;;
50417;SDS011;36346;48.280;14.292;2022-12-18T04:01:16;40.09;;;38.63;;
50417;SDS011;36346;48.280;14.292;2022-12-18T04:03:48;38.69;;;37.81;;
50417;SDS011;36346;48.280;14.292;2022-12-18T04:06:19;38.70;;;37.62;;
50417;SDS011;36346;48.280;14.292;2022-12-18T04:08:49;38.60;;;37.65;;
50417;SDS011;36346;48.280;14.292;2022-12-18T04:11:21;40.22;;;39.08;;
50417;SDS011;36346;48.280;14.292;2022-12-18T04:13:49;40.67;;;39.64;;
50417;SDS011;36346;48.280;14.292;2022-12-18T04:16:22;40.03;;;38.94;;
50417;SDS011;36346;48.280;14.292;2022-12-18T04:18:53;39.99;;;38.78;;
50417;SDS011;36346;48.280;14.292;2022-12-18T04:21:24;39.95;;;38.96;;
50417;SDS011;36346;48.280;14.292;2022-12-18T04:23:53;41.17;;;39.75;;
50417;SDS011;36346;48.280;14.292;2022-12-18T04:26:22;41.15;;;39.96;;
50417;SDS011;36346;48.280;14.292;2022-12-18T04:29:03;42.29;;;41.20;;
50417;SDS011;36346;48.280;14.292;2022-12-18T04:31:32;42.69;;;41.32;;
50417;SDS011;36346;48.280;14.292;2022-12-18T04:34:00;42.75;;;41.47;;
50417;SDS011;36346;48.280;14.292;2022-12-18T04:36:28;42.82;;;41.41;;
50417;SDS011;36346;48.280;14.292;2022-12-18T04:38:56;42.63;;;41.14;;
50417;SDS011;36346;48.280;14.292;2022-12-18T04:41:25;42.45;;;41.08;;
50417;SDS011;36346;48.280;14.292;2022-12-18T04:43:54;41.87;;;40.55;;
50417;SDS011;36346;48.280;14.292;2022-12-18T04:46:22;41.86;;;40.85;;
50417;SDS011;36346;48.280;14.292;2022-12-18T04:48:50;41.03;;;39.73;;
50417;SDS011;36346;48.280;14.292;2022-12-18T04:51:17;40.80;;;39.77;;
50417;SDS011;36346;48.280;14.292;2022-12-18T04:53:53;41.68;;;40.41;;
50417;SDS011;36346;48.280;14.292;2022-12-18T04:56:21;41.48;;;40.03;;
50417;SDS011;36346;48.280;14.292;2022-12-18T04:58:49;39.99;;;38.91;;
50417;SDS011;36346;48.280;14.292;2022-12-18T05:01:17;39.56;;;38.48;;
50417;SDS011;36346;48.280;14.292;2022-12-18T05:03:46;39.58;;;38.36;;
50417;SDS011;36346;48.280;14.292;2022-12-18T05:06:14;39.85;;;38.94;;
50417;SDS011;36346;48.280;14.292;2022-12-18T05:08:42;39.04;;;38.02;;
50417;SDS011;36346;48.280;14.292;2022-12-18T05:11:11;38.98;;;37.75;;
50417;SDS011;36346;48.280;14.292;2022-12-18T05:13:44;37.35;;;36.55;;
50417;SDS011;36346;48.280;14.292;2022-12-18T05:16:13;36.99;;;36.07;;
50417;SDS011;36346;48.280;14.292;2022-12-18T05:18:42;34.35;;;33.42;;
50417;SDS011;36346;48.280;14.292;2022-12-18T05:21:10;35.50;;;34.56;;
50417;SDS011;36346;48.280;14.292;2022-12-18T05:23:38;33.89;;;33.16;;
50417;SDS011;36346;48.280;14.292;2022-12-18T05:26:07;32.41;;;31.72;;
50417;SDS011;36346;48.280;14.292;2022-12-18T05:28:35;31.95;;;31.31;;
50417;SDS011;36346;48.280;14.292;2022-12-18T05:31:04;31.84;;;31.23;;
50417;SDS011;36346;48.280;14.292;2022-12-18T05:33:33;32.21;;;31.50;;
50417;SDS011;36346;48.280;14.292;2022-12-18T05:36:04;32.61;;;31.98;;
50417;SDS011;36346;48.280;14.292;2022-12-18T05:38:35;33.52;;;32.90;;
50417;SDS011;36346;48.280;14.292;2022-12-18T05:41:04;34.11;;;33.27;;
50417;SDS011;36346;48.280;14.292;2022-12-18T05:43:33;34.46;;;33.51;;
50417;SDS011;36346;48.280;14.292;2022-12-18T05:46:04;34.04;;;33.09;;
50417;SDS011;36346;48.280;14.292;2022-12-18T05:48:33;33.69;;;32.87;;
50417;SDS011;36346;48.280;14.292;2022-12-18T05:51:08;32.76;;;32.09;;
50417;SDS011;36346;48.280;14.292;2022-12-18T05:53:37;33.76;;;33.08;;
50417;SDS011;36346;48.280;14.292;2022-12-18T05:56:07;32.19;;;31.65;;
50417;SDS011;36346;48.280;14.292;2022-12-18T05:58:37;33.18;;;32.40;;
50417;SDS011;36346;48.280;14.292;2022-12-18T06:01:07;32.67;;;31.96;;
50417;SDS011;36346;48.280;14.292;2022-12-18T06:03:43;32.59;;;32.00;;
50417;SDS011;36346;48.280;14.292;2022-12-18T06:06:13;32.30;;;31.87;;
50417;SDS011;36346;48.280;14.292;2022-12-18T06:08:41;32.64;;;32.11;;
50417;SDS011;36346;48.280;14.292;2022-12-18T06:11:15;32.30;;;31.38;;
50417;SDS011;36346;48.280;14.292;2022-12-18T06:13:46;32.45;;;31.70;;
50417;SDS011;36346;48.280;14.292;2022-12-18T06:16:14;33.68;;;33.02;;
50417;SDS011;36346;48.280;14.292;2022-12-18T06:18:42;34.40;;;33.31;;
50417;SDS011;36346;48.280;14.292;2022-12-18T06:21:10;34.78;;;33.86;;
50417;SDS011;36346;48.280;14.292;2022-12-18T06:23:38;34.60;;;33.93;;
50417;SDS011;36346;48.280;14.292;2022-12-18T06:26:13;33.34;;;32.67;;
50417;SDS011;36346;48.280;14.292;2022-12-18T06:28:41;32.36;;;32.03;;
50417;SDS011;36346;48.280;14.292;2022-12-18T06:31:10;32.02;;;31.55;;
50417;SDS011;36346;48.280;14.292;2022-12-18T06:33:38;31.48;;;30.86;;
50417;SDS011;36346;48.280;14.292;2022-12-18T06:36:09;28.82;;;28.32;;
50417;SDS011;36346;48.280;14.292;2022-12-18T06:38:39;28.92;;;28.31;;
50417;SDS011;36346;48.280;14.292;2022-12-18T06:41:10;27.81;;;27.42;;
50417;SDS011;36346;48.280;14.292;2022-12-18T06:43:40;26.67;;;26.37;;
50417;SDS011;36346;48.280;14.292;2022-12-18T06:46:09;26.04;;;25.60;;
50417;SDS011;36346;48.280;14.292;2022-12-18T06:48:38;23.68;;;23.28;;
50417;SDS011;36346;48.280;14.292;2022-12-18T06:51:06;20.85;;;20.63;;
50417;SDS011;36346;48.280;14.292;2022-12-18T06:53:34;20.33;;;20.07;;
50417;SDS011;36346;48.280;14.292;2022-12-18T06:56:06;20.10;;;19.86;;
50417;SDS011;36346;48.280;14.292;2022-12-18T06:58:38;19.27;;;18.95;;
50417;SDS011;36346;48.280;14.292;2022-12-18T07:01:07;19.81;;;19.57;;
50417;SDS011;36346;48.280;14.292;2022-12-18T07:03:38;20.11;;;19.64;;
50417;SDS011;36346;48.280;14.292;2022-12-18T07:06:16;20.32;;;20.06;;
50417;SDS011;36346;48.280;14.292;2022-12-18T07:08:46;20.91;;;20.65;;
50417;SDS011;36346;48.280;14.292;2022-12-18T07:11:15;20.87;;;20.71;;
50417;SDS011;36346;48.280;14.292;2022-12-18T07:13:44;21.90;;;21.48;;
50417;SDS011;36346;48.280;14.292;2022-12-18T07:16:17;21.04;;;20.78;;
50417;SDS011;36346;48.280;14.292;2022-12-18T07:18:52;21.50;;;21.14;;
50417;SDS011;36346;48.280;14.292;2022-12-18T07:21:23;20.69;;;20.46;;
50417;SDS011;36346;48.280;14.292;2022-12-18T07:23:52;21.56;;;21.24;;
50417;SDS011;36346;48.280;14.292;2022-12-18T07:26:21;21.18;;;20.86;;
50417;SDS011;36346;48.280;14.292;2022-12-18T07:28:49;21.57;;;21.32;;
50417;SDS011;36346;48.280;14.292;2022-12-18T07:31:19;21.69;;;21.43;;
50417;SDS011;36346;48.280;14.292;2022-12-18T07:33:49;21.39;;;21.16;;
50417;SDS011;36346;48.280;14.292;2022-12-18T07:36:18;21.76;;;21.43;;
50417;SDS011;36346;48.280;14.292;2022-12-18T07:38:47;21.26;;;21.07;;
50417;SDS011;36346;48.280;14.292;2022-12-18T07:41:15;21.70;;;21.39;;
50417;SDS011;36346;48.280;14.292;2022-12-18T07:43:44;21.78;;;21.55;;
50417;SDS011;36346;48.280;14.292;2022-12-18T07:46:12;22.06;;;21.89;;
50417;SDS011;36346;48.280;14.292;2022-12-18T07:48:41;22.92;;;22.66;;
50417;SDS011;36346;48.280;14.292;2022-12-18T07:51:12;22.66;;;22.40;;
50417;SDS011;36346;48.280;14.292;2022-12-18T07:53:40;23.50;;;23.23;;
50417;SDS011;36346;48.280;14.292;2022-12-18T07:56:09;24.15;;;23.89;;
50417;SDS011;36346;48.280;14.292;2022-12-18T07:58:58;24.70;;;24.41;;
50417;SDS011;36346;48.280;14.292;2022-12-18T08:01:26;24.98;;;24.58;;
50417;SDS011;36346;48.280;14.292;2022-12-18T08:03:55;25.36;;;25.08;;
50417;SDS011;36346;48.280;14.292;2022-12-18T08:06:23;33.17;;;32.60;;
50417;SDS011;36346;48.280;14.292;2022-12-18T08:08:54;31.57;;;30.90;;
50417;SDS011;36346;48.280;14.292;2022-12-18T08:11:24;32.52;;;32.12;;
50417;SDS011;36346;48.280;14.292;2022-12-18T08:13:54;33.84;;;33.23;;
50417;SDS011;36346;48.280;14.292;2022-12-18T08:16:22;32.79;;;32.08;;
50417;SDS011;36346;48.280;14.292;2022-12-18T08:18:51;33.19;;;32.39;;
50417;SDS011;36346;48.280;14.292;2022-12-18T08:21:24;31.66;;;31.05;;
50417;SDS011;36346;48.280;14.292;2022-12-18T08:23:55;32.57;;;32.17;;
50417;SDS011;36346;48.280;14.292;2022-12-18T08:26:26;31.04;;;30.50;;
50417;SDS011;36346;48.280;14.292;2022-12-18T08:28:56;28.71;;;28.29;;
50417;SDS011;36346;48.280;14.292;2022-12-18T08:31:27;27.19;;;26.93;;
50417;SDS011;36346;48.280;14.292;2022-12-18T08:33:57;26.37;;;26.07;;
50417;SDS011;36346;48.280;14.292;2022-12-18T08:36:25;23.75;;;23.53;;
50417;SDS011;36346;48.280;14.292;2022-12-18T08:38:54;23.51;;;23.23;;
50417;SDS011;36346;48.280;14.292;2022-12-18T08:41:22;22.30;;;22.04;;
50417;SDS011;36346;48.280;14.292;2022-12-18T08:43:50;22.99;;;22.69;;
50417;SDS011;36346;48.280;14.292;2022-12-18T08:46:38;22.85;;;22.61;;
50417;SDS011;36346;48.280;14.292;2022-12-18T08:49:08;23.15;;;22.89;;
50417;SDS011;36346;48.280;14.292;2022-12-18T08:51:37;24.51;;;24.21;;
50417;SDS011;36346;48.280;14.292;2022-12-18T08:54:06;25.57;;;25.23;;
50417;SDS011;36346;48.280;14.292;2022-12-18T08:56:34;26.99;;;26.53;;
50417;SDS011;36346;48.280;14.292;2022-12-18T08:59:02;27.50;;;26.97;;
50417;SDS011;36346;48.280;14.292;2022-12-18T09:01:31;27.90;;;27.23;;
50417;SDS011;36346;48.280;14.292;2022-12-18T09:03:59;27.74;;;27.11;;
50417;SDS011;36346;48.280;14.292;2022-12-18T09:06:27;33.23;;;32.37;;
50417;SDS011;36346;48.280;14.292;2022-12-18T09:08:56;29.93;;;29.05;;
50417;SDS011;36346;48.280;14.292;2022-12-18T09:11:25;28.91;;;28.40;;
50417;SDS011;36346;48.280;14.292;2022-12-18T09:13:54;29.90;;;29.30;;
50417;SDS011;36346;48.280;14.292;2022-12-18T09:16:24;29.62;;;29.16;;
50417;SDS011;36346;48.280;14.292;2022-12-18T09:18:58;30.07;;;29.64;;
50417;SDS011;36346;48.280;14.292;2022-12-18T09:21:28;28.93;;;28.57;;
50417;SDS011;36346;48.280;14.292;2022-12-18T09:23:59;28.84;;;28.48;;
50417;SDS011;36346;48.280;14.292;2022-12-18T09:26:27;28.49;;;28.20;;
50417;SDS011;36346;48.280;14.292;2022-12-18T09:28:56;29.20;;;28.68;;
50417;SDS011;36346;48.280;14.292;2022-12-18T09:31:24;28.21;;;27.71;;
50417;SDS011;36346;48.280;14.292;2022-12-18T09:33:52;27.34;;;27.13;;
50417;SDS011;36346;48.280;14.292;2022-12-18T09:36:23;25.77;;;25.50;;
50417;SDS011;36346;48.280;14.292;2022-12-18T09:38:51;23.85;;;23.55;;
50417;SDS011;36346;48.280;14.292;2022-12-18T09:44:01;24.24;;;23.89;;
50417;SDS011;36346;48.280;14.292;2022-12-18T09:46:39;24.35;;;23.96;;
50417;SDS011;36346;48.280;14.292;2022-12-18T09:49:31;22.54;;;22.32;;
50417;SDS011;36346;48.280;14.292;2022-12-18T09:52:08;21.94;;;21.71;;
50417;SDS011;36346;48.280;14.292;2022-12-18T09:55:01;22.90;;;22.69;;
50417;SDS011;36346;48.280;14.292;2022-12-18T09:57:52;22.41;;;22.17;;
50417;SDS011;36346;48.280;14.292;2022-12-18T10:00:35;22.26;;;22.16;;
50417;SDS011;36346;48.280;14.292;2022-12-18T10:03:08;26.49;;;26.22;;
50417;SDS011;36346;48.280;14.292;2022-12-18T10:11:23;22.61;;;22.48;;
50417;SDS011;36346;48.280;14.292;2022-12-18T10:17:00;21.01;;;20.85;;
50417;SDS011;36346;48.280;14.292;2022-12-18T10:19:50;21.79;;;21.62;;
50417;SDS011;36346;48.280;14.292;2022-12-18T10:25:15;20.33;;;20.17;;
50417;SDS011;36346;48.280;14.292;2022-12-18T10:27:47;19.55;;;19.46;;
50417;SDS011;36346;48.280;14.292;2022-12-18T10:30:24;19.20;;;18.97;;
50417;SDS011;36346;48.280;14.292;2022-12-18T10:32:53;18.50;;;18.35;;
50417;SDS011;36346;48.280;14.292;2022-12-18T10:35:25;19.12;;;18.93;;
50417;SDS011;36346;48.280;14.292;2022-12-18T10:40:54;18.70;;;18.54;;
50417;SDS011;36346;48.280;14.292;2022-12-18T10:46:01;19.24;;;18.99;;
50417;SDS011;36346;48.280;14.292;2022-12-18T10:51:07;19.60;;;19.39;;
50417;SDS011;36346;48.280;14.292;2022-12-18T10:53:40;19.83;;;19.75;;
50417;SDS011;36346;48.280;14.292;2022-12-18T10:56:10;19.76;;;19.57;;
50417;SDS011;36346;48.280;14.292;2022-12-18T10:58:38;19.58;;;19.29;;
50417;SDS011;36346;48.280;14.292;2022-12-18T11:03:44;19.54;;;19.39;;
50417;SDS011;36346;48.280;14.292;2022-12-18T11:06:15;19.73;;;19.58;;
50417;SDS011;36346;48.280;14.292;2022-12-18T11:08:59;20.33;;;20.06;;
50417;SDS011;36346;48.280;14.292;2022-12-18T11:11:38;20.12;;;19.95;;
50417;SDS011;36346;48.280;14.292;2022-12-18T11:14:15;20.80;;;20.63;;
50417;SDS011;36346;48.280;14.292;2022-12-18T11:16:48;20.21;;;20.04;;
50417;SDS011;36346;48.280;14.292;2022-12-18T11:19:39;20.75;;;20.56;;
50417;SDS011;36346;48.280;14.292;2022-12-18T11:28:03;19.88;;;19.69;;
50417;SDS011;36346;48.280;14.292;2022-12-18T11:30:36;21.48;;;21.35;;
50417;SDS011;36346;48.280;14.292;2022-12-18T11:33:06;21.50;;;21.29;;
50417;SDS011;36346;48.280;14.292;2022-12-18T11:41:00;23.92;;;23.77;;
50417;SDS011;36346;48.280;14.292;2022-12-18T11:43:38;23.51;;;23.24;;
50417;SDS011;36346;48.280;14.292;2022-12-18T11:49:08;24.24;;;24.06;;
50417;SDS011;36346;48.280;14.292;2022-12-18T11:52:04;26.27;;;26.04;;
50417;SDS011;36346;48.280;14.292;2022-12-18T11:54:52;27.59;;;27.21;;
50417;SDS011;36346;48.280;14.292;2022-12-18T12:00:04;29.63;;;29.36;;
50417;SDS011;36346;48.280;14.292;2022-12-18T12:02:47;32.10;;;31.81;;
50417;SDS011;36346;48.280;14.292;2022-12-18T12:14:02;34.23;;;33.75;;
50417;SDS011;36346;48.280;14.292;2022-12-18T12:16:52;35.25;;;35.01;;
50417;SDS011;36346;48.280;14.292;2022-12-18T12:20:11;35.91;;;35.54;;
50417;SDS011;36346;48.280;14.292;2022-12-18T12:31:05;32.47;;;32.15;;
50417;SDS011;36346;48.280;14.292;2022-12-18T12:33:51;33.11;;;32.75;;
50417;SDS011;36346;48.280;14.292;2022-12-18T12:39:11;33.24;;;32.76;;
50417;SDS011;36346;48.280;14.292;2022-12-18T12:41:45;34.91;;;34.37;;
50417;SDS011;36346;48.280;14.292;2022-12-18T12:44:38;36.32;;;35.82;;
50417;SDS011;36346;48.280;14.292;2022-12-18T12:47:20;36.00;;;35.47;;
50417;SDS011;36346;48.280;14.292;2022-12-18T12:49:54;35.86;;;35.35;;
50417;SDS011;36346;48.280;14.292;2022-12-18T12:54:55;38.54;;;38.05;;
50417;SDS011;36346;48.280;14.292;2022-12-18T12:57:29;39.10;;;38.60;;
50417;SDS011;36346;48.280;14.292;2022-12-18T13:00:09;38.50;;;38.01;;
50417;SDS011;36346;48.280;14.292;2022-12-18T13:05:34;38.11;;;37.56;;
50417;SDS011;36346;48.280;14.292;2022-12-18T13:08:10;38.91;;;38.37;;
50417;SDS011;36346;48.280;14.292;2022-12-18T13:10:41;38.79;;;38.24;;
50417;SDS011;36346;48.280;14.292;2022-12-18T13:13:10;38.29;;;37.60;;
50417;SDS011;36346;48.280;14.292;2022-12-18T13:15:44;36.45;;;35.97;;
50417;SDS011;36346;48.280;14.292;2022-12-18T13:18:16;37.84;;;37.18;;
50417;SDS011;36346;48.280;14.292;2022-12-18T13:20:51;38.01;;;37.44;;
50417;SDS011;36346;48.280;14.292;2022-12-18T13:32:02;38.09;;;37.19;;
50417;SDS011;36346;48.280;14.292;2022-12-18T13:36:55;37.25;;;36.58;;
50417;SDS011;36346;48.280;14.292;2022-12-18T13:39:44;38.18;;;37.38;;
50417;SDS011;36346;48.280;14.292;2022-12-18T13:45:00;38.52;;;37.93;;
50417;SDS011;36346;48.280;14.292;2022-12-18T13:47:31;39.81;;;39.20;;
50417;SDS011;36346;48.280;14.292;2022-12-18T13:50:01;38.29;;;37.62;;
50417;SDS011;36346;48.280;14.292;2022-12-18T13:52:40;38.81;;;38.01;;
50417;SDS011;36346;48.280;14.292;2022-12-18T13:55:14;38.86;;;38.31;;
50417;SDS011;36346;48.280;14.292;2022-12-18T13:57:46;39.31;;;38.58;;
50417;SDS011;36346;48.280;14.292;2022-12-18T14:02:51;37.81;;;37.27;;
50417;SDS011;36346;48.280;14.292;2022-12-18T14:05:42;38.97;;;38.45;;
50417;SDS011;36346;48.280;14.292;2022-12-18T14:08:13;38.98;;;38.31;;
50417;SDS011;36346;48.280;14.292;2022-12-18T14:10:43;40.34;;;39.46;;
50417;SDS011;36346;48.280;14.292;2022-12-18T14:16:11;39.44;;;38.58;;
50417;SDS011;36346;48.280;14.292;2022-12-18T14:21:17;37.73;;;37.06;;
50417;SDS011;36346;48.280;14.292;2022-12-18T14:23:48;37.64;;;36.96;;
50417;SDS011;36346;48.280;14.292;2022-12-18T14:26:39;36.91;;;36.25;;
50417;SDS011;36346;48.280;14.292;2022-12-18T14:29:26;37.13;;;36.52;;
50417;SDS011;36346;48.280;14.292;2022-12-18T14:34:34;36.58;;;35.82;;
50417;SDS011;36346;48.280;14.292;2022-12-18T14:37:02;35.97;;;35.19;;
50417;SDS011;36346;48.280;14.292;2022-12-18T14:39:31;36.47;;;35.63;;
50417;SDS011;36346;48.280;14.292;2022-12-18T14:41:59;34.97;;;34.24;;
50417;SDS011;36346;48.280;14.292;2022-12-18T14:44:27;33.66;;;32.91;;
50417;SDS011;36346;48.280;14.292;2022-12-18T14:47:01;34.43;;;33.34;;
50417;SDS011;36346;48.280;14.292;2022-12-18T14:49:30;36.19;;;35.27;;
50417;SDS011;36346;48.280;14.292;2022-12-18T14:52:01;35.77;;;35.10;;
50417;SDS011;36346;48.280;14.292;2022-12-18T14:54:34;34.70;;;33.91;;
50417;SDS011;36346;48.280;14.292;2022-12-18T14:57:05;34.80;;;34.15;;
50417;SDS011;36346;48.280;14.292;2022-12-18T14:59:46;36.28;;;35.63;;
50417;SDS011;36346;48.280;14.292;2022-12-18T15:07:56;35.76;;;34.96;;
50417;SDS011;36346;48.280;14.292;2022-12-18T15:10:27;39.47;;;38.06;;
50417;SDS011;36346;48.280;14.292;2022-12-18T15:20:43;34.18;;;33.50;;
50417;SDS011;36346;48.280;14.292;2022-12-18T15:23:35;35.76;;;34.79;;
50417;SDS011;36346;48.280;14.292;2022-12-18T15:26:06;35.15;;;34.20;;
50417;SDS011;36346;48.280;14.292;2022-12-18T15:28:37;36.44;;;35.65;;
50417;SDS011;36346;48.280;14.292;2022-12-18T15:33:40;34.59;;;33.69;;
50417;SDS011;36346;48.280;14.292;2022-12-18T15:36:10;33.36;;;32.52;;
50417;SDS011;36346;48.280;14.292;2022-12-18T15:38:41;33.91;;;33.15;;
50417;SDS011;36346;48.280;14.292;2022-12-18T15:41:11;34.44;;;33.61;;
50417;SDS011;36346;48.280;14.292;2022-12-18T15:43:43;36.30;;;35.42;;
50417;SDS011;36346;48.280;14.292;2022-12-18T15:46:13;36.65;;;35.71;;
50417;SDS011;36346;48.280;14.292;2022-12-18T15:48:43;36.95;;;35.96;;
50417;SDS011;36346;48.280;14.292;2022-12-18T15:51:14;36.99;;;36.03;;
50417;SDS011;36346;48.280;14.292;2022-12-18T15:54:01;37.23;;;36.28;;
50417;SDS011;36346;48.280;14.292;2022-12-18T15:56:31;35.37;;;34.57;;
50417;SDS011;36346;48.280;14.292;2022-12-18T15:59:19;36.64;;;35.74;;
50417;SDS011;36346;48.280;14.292;2022-12-18T16:01:49;36.56;;;35.92;;
50417;SDS011;36346;48.280;14.292;2022-12-18T16:04:19;39.52;;;38.61;;
50417;SDS011;36346;48.280;14.292;2022-12-18T16:06:48;40.05;;;39.10;;
50417;SDS011;36346;48.280;14.292;2022-12-18T16:09:37;37.24;;;36.56;;
50417;SDS011;36346;48.280;14.292;2022-12-18T16:12:06;36.31;;;35.56;;
50417;SDS011;36346;48.280;14.292;2022-12-18T16:14:51;35.82;;;35.22;;
50417;SDS011;36346;48.280;14.292;2022-12-18T16:17:19;37.25;;;36.34;;
50417;SDS011;36346;48.280;14.292;2022-12-18T16:19:47;37.80;;;36.84;;
50417;SDS011;36346;48.280;14.292;2022-12-18T16:22:20;39.36;;;38.49;;
50417;SDS011;36346;48.280;14.292;2022-12-18T16:24:50;40.34;;;39.40;;
50417;SDS011;36346;48.280;14.292;2022-12-18T16:27:20;39.56;;;38.53;;
50417;SDS011;36346;48.280;14.292;2022-12-18T16:29:50;39.13;;;38.15;;
50417;SDS011;36346;48.280;14.292;2022-12-18T16:32:18;37.72;;;36.85;;
50417;SDS011;36346;48.280;14.292;2022-12-18T16:34:48;38.72;;;37.73;;
50417;SDS011;36346;48.280;14.292;2022-12-18T16:37:16;38.27;;;37.16;;
50417;SDS011;36346;48.280;14.292;2022-12-18T16:39:44;38.32;;;37.48;;
50417;SDS011;36346;48.280;14.292;2022-12-18T16:42:18;37.50;;;36.67;;
50417;SDS011;36346;48.280;14.292;2022-12-18T16:44:48;39.48;;;38.54;;
50417;SDS011;36346;48.280;14.292;2022-12-18T16:47:17;41.04;;;40.10;;
50417;SDS011;36346;48.280;14.292;2022-12-18T16:49:46;41.43;;;40.50;;
50417;SDS011;36346;48.280;14.292;2022-12-18T16:52:15;41.74;;;40.74;;